sensor_id;sensor_type;location;lat;lon;timestamp;P1;durP1;ratioP1;P2;durP2;ratioP2
49235;SDS011;35067;48.134;8.378;2023-05-02T00:00:53;24.67;;;15.03;;
49235;SDS011;35067;48.134;8.378;2023-05-02T00:01:55;24.35;;;15.50;;
49235;SDS011;35067;48.134;8.378;2023-05-02T00:02:57;29.50;;;16.73;;
49235;SDS011;35067;48.134;8.378;2023-05-02T00:03:57;27.17;;;15.73;;
49235;SDS011;35067;48.134;8.378;2023-05-02T00:04:58;26.27;;;14.67;;
49235;SDS011;35067;48.134;8.378;2023-05-02T00:05:59;28.97;;;14.73;;
49235;SDS011;35067;48.134;8.378;2023-05-02T00:07:02;25.73;;;14.18;;
49235;SDS011;35067;48.134;8.378;2023-05-02T00:08:04;25.90;;;14.95;;
49235;SDS011;35067;48.134;8.378;2023-05-02T00:09:05;24.23;;;14.85;;
49235;SDS011;35067;48.134;8.378;2023-05-02T00:10:06;24.90;;;15.37;;
49235;SDS011;35067;48.134;8.378;2023-05-02T00:11:07;29.83;;;16.00;;
49235;SDS011;35067;48.134;8.378;2023-05-02T00:12:08;28.30;;;15.23;;
49235;SDS011;35067;48.134;8.378;2023-05-02T00:13:09;32.97;;;17.27;;
49235;SDS011;35067;48.134;8.378;2023-05-02T00:14:10;27.02;;;15.18;;
49235;SDS011;35067;48.134;8.378;2023-05-02T00:15:12;25.63;;;14.55;;
49235;SDS011;35067;48.134;8.378;2023-05-02T00:16:12;25.63;;;14.97;;
49235;SDS011;35067;48.134;8.378;2023-05-02T00:17:18;23.85;;;14.02;;
49235;SDS011;35067;48.134;8.378;2023-05-02T00:18:19;31.17;;;15.02;;
49235;SDS011;35067;48.134;8.378;2023-05-02T00:19:25;30.23;;;16.35;;
49235;SDS011;35067;48.134;8.378;2023-05-02T00:20:27;26.40;;;15.30;;
49235;SDS011;35067;48.134;8.378;2023-05-02T00:21:29;27.30;;;15.80;;
49235;SDS011;35067;48.134;8.378;2023-05-02T00:22:32;25.35;;;14.23;;
49235;SDS011;35067;48.134;8.378;2023-05-02T00:23:33;31.00;;;16.43;;
49235;SDS011;35067;48.134;8.378;2023-05-02T00:24:33;27.10;;;15.93;;
49235;SDS011;35067;48.134;8.378;2023-05-02T00:25:35;27.33;;;14.85;;
49235;SDS011;35067;48.134;8.378;2023-05-02T00:26:36;26.67;;;16.37;;
49235;SDS011;35067;48.134;8.378;2023-05-02T00:27:37;28.57;;;16.00;;
49235;SDS011;35067;48.134;8.378;2023-05-02T00:28:37;26.37;;;15.20;;
49235;SDS011;35067;48.134;8.378;2023-05-02T00:29:39;27.90;;;15.07;;
49235;SDS011;35067;48.134;8.378;2023-05-02T00:30:44;31.92;;;15.85;;
49235;SDS011;35067;48.134;8.378;2023-05-02T00:31:45;28.58;;;15.73;;
49235;SDS011;35067;48.134;8.378;2023-05-02T00:32:46;25.10;;;15.93;;
49235;SDS011;35067;48.134;8.378;2023-05-02T00:33:47;25.97;;;14.67;;
49235;SDS011;35067;48.134;8.378;2023-05-02T00:34:48;26.67;;;15.90;;
49235;SDS011;35067;48.134;8.378;2023-05-02T00:35:48;28.00;;;16.07;;
49235;SDS011;35067;48.134;8.378;2023-05-02T00:36:50;26.02;;;15.35;;
49235;SDS011;35067;48.134;8.378;2023-05-02T00:37:52;25.33;;;13.77;;
49235;SDS011;35067;48.134;8.378;2023-05-02T00:38:54;25.15;;;13.45;;
49235;SDS011;35067;48.134;8.378;2023-05-02T00:39:55;21.55;;;12.80;;
49235;SDS011;35067;48.134;8.378;2023-05-02T00:40:55;24.57;;;14.13;;
49235;SDS011;35067;48.134;8.378;2023-05-02T00:41:57;27.73;;;16.20;;
49235;SDS011;35067;48.134;8.378;2023-05-02T00:43:00;28.48;;;15.80;;
49235;SDS011;35067;48.134;8.378;2023-05-02T00:44:02;30.00;;;15.27;;
49235;SDS011;35067;48.134;8.378;2023-05-02T00:45:03;24.43;;;14.33;;
49235;SDS011;35067;48.134;8.378;2023-05-02T00:46:05;27.48;;;15.63;;
49235;SDS011;35067;48.134;8.378;2023-05-02T00:47:06;27.65;;;15.02;;
49235;SDS011;35067;48.134;8.378;2023-05-02T00:48:07;26.17;;;15.33;;
49235;SDS011;35067;48.134;8.378;2023-05-02T00:49:09;30.10;;;16.25;;
49235;SDS011;35067;48.134;8.378;2023-05-02T00:50:10;29.50;;;15.13;;
49235;SDS011;35067;48.134;8.378;2023-05-02T00:51:11;27.30;;;15.37;;
49235;SDS011;35067;48.134;8.378;2023-05-02T00:52:13;27.58;;;16.17;;
49235;SDS011;35067;48.134;8.378;2023-05-02T00:53:14;26.33;;;14.53;;
49235;SDS011;35067;48.134;8.378;2023-05-02T00:54:16;26.63;;;15.07;;
49235;SDS011;35067;48.134;8.378;2023-05-02T00:55:17;24.23;;;14.70;;
49235;SDS011;35067;48.134;8.378;2023-05-02T00:56:19;28.02;;;15.30;;
49235;SDS011;35067;48.134;8.378;2023-05-02T00:57:20;23.63;;;14.73;;
49235;SDS011;35067;48.134;8.378;2023-05-02T00:58:21;26.58;;;14.73;;
49235;SDS011;35067;48.134;8.378;2023-05-02T00:59:22;29.87;;;15.57;;
49235;SDS011;35067;48.134;8.378;2023-05-02T01:00:25;28.65;;;15.85;;
49235;SDS011;35067;48.134;8.378;2023-05-02T01:03:07;25.42;;;13.05;;
49235;SDS011;35067;48.134;8.378;2023-05-02T01:05:54;23.20;;;13.30;;
49235;SDS011;35067;48.134;8.378;2023-05-02T01:07:34;24.20;;;13.65;;
49235;SDS011;35067;48.134;8.378;2023-05-02T01:10:13;22.73;;;13.40;;
49235;SDS011;35067;48.134;8.378;2023-05-02T01:13:27;22.92;;;13.35;;
49235;SDS011;35067;48.134;8.378;2023-05-02T01:14:09;27.35;;;14.43;;
49235;SDS011;35067;48.134;8.378;2023-05-02T01:15:15;22.90;;;13.73;;
49235;SDS011;35067;48.134;8.378;2023-05-02T01:16:19;24.08;;;13.82;;
49235;SDS011;35067;48.134;8.378;2023-05-02T01:17:23;24.83;;;14.60;;
49235;SDS011;35067;48.134;8.378;2023-05-02T01:18:33;24.55;;;14.20;;
49235;SDS011;35067;48.134;8.378;2023-05-02T01:19:41;31.25;;;16.23;;
49235;SDS011;35067;48.134;8.378;2023-05-02T01:20:50;22.65;;;12.98;;
49235;SDS011;35067;48.134;8.378;2023-05-02T01:22:00;23.50;;;13.75;;
49235;SDS011;35067;48.134;8.378;2023-05-02T01:23:30;22.42;;;13.77;;
49235;SDS011;35067;48.134;8.378;2023-05-02T01:24:58;18.40;;;11.32;;
49235;SDS011;35067;48.134;8.378;2023-05-02T01:29:04;24.00;;;13.63;;
49235;SDS011;35067;48.134;8.378;2023-05-02T01:30:08;23.50;;;12.77;;
49235;SDS011;35067;48.134;8.378;2023-05-02T01:31:11;25.67;;;13.93;;
49235;SDS011;35067;48.134;8.378;2023-05-02T01:32:15;28.73;;;14.30;;
49235;SDS011;35067;48.134;8.378;2023-05-02T01:33:20;25.55;;;15.15;;
49235;SDS011;35067;48.134;8.378;2023-05-02T01:34:23;23.95;;;14.02;;
49235;SDS011;35067;48.134;8.378;2023-05-02T01:35:26;22.30;;;13.95;;
49235;SDS011;35067;48.134;8.378;2023-05-02T01:36:29;22.42;;;13.27;;
49235;SDS011;35067;48.134;8.378;2023-05-02T01:37:31;22.73;;;14.38;;
49235;SDS011;35067;48.134;8.378;2023-05-02T01:38:33;25.45;;;14.02;;
49235;SDS011;35067;48.134;8.378;2023-05-02T01:39:34;26.65;;;15.18;;
49235;SDS011;35067;48.134;8.378;2023-05-02T01:40:37;24.15;;;14.75;;
49235;SDS011;35067;48.134;8.378;2023-05-02T01:41:38;27.17;;;14.00;;
49235;SDS011;35067;48.134;8.378;2023-05-02T01:42:40;25.42;;;14.68;;
49235;SDS011;35067;48.134;8.378;2023-05-02T01:43:43;24.70;;;14.68;;
49235;SDS011;35067;48.134;8.378;2023-05-02T01:44:44;27.02;;;14.90;;
49235;SDS011;35067;48.134;8.378;2023-05-02T01:45:47;26.92;;;13.52;;
49235;SDS011;35067;48.134;8.378;2023-05-02T01:46:51;24.15;;;14.30;;
49235;SDS011;35067;48.134;8.378;2023-05-02T01:47:54;26.90;;;13.57;;
49235;SDS011;35067;48.134;8.378;2023-05-02T01:48:55;24.67;;;14.68;;
49235;SDS011;35067;48.134;8.378;2023-05-02T01:49:58;24.27;;;14.68;;
49235;SDS011;35067;48.134;8.378;2023-05-02T01:51:01;25.17;;;15.00;;
49235;SDS011;35067;48.134;8.378;2023-05-02T01:52:08;20.67;;;13.90;;
49235;SDS011;35067;48.134;8.378;2023-05-02T01:53:11;24.77;;;14.57;;
49235;SDS011;35067;48.134;8.378;2023-05-02T01:54:14;24.23;;;14.07;;
49235;SDS011;35067;48.134;8.378;2023-05-02T01:55:17;24.15;;;13.60;;
49235;SDS011;35067;48.134;8.378;2023-05-02T01:56:20;23.70;;;14.80;;
49235;SDS011;35067;48.134;8.378;2023-05-02T01:57:24;26.00;;;15.27;;
49235;SDS011;35067;48.134;8.378;2023-05-02T01:58:26;25.80;;;15.60;;
49235;SDS011;35067;48.134;8.378;2023-05-02T01:59:30;29.17;;;15.32;;
49235;SDS011;35067;48.134;8.378;2023-05-02T02:00:33;28.00;;;16.58;;
49235;SDS011;35067;48.134;8.378;2023-05-02T02:01:35;30.65;;;15.77;;
49235;SDS011;35067;48.134;8.378;2023-05-02T02:02:40;32.78;;;17.23;;
49235;SDS011;35067;48.134;8.378;2023-05-02T02:03:43;28.92;;;16.40;;
49235;SDS011;35067;48.134;8.378;2023-05-02T02:04:46;34.40;;;17.13;;
49235;SDS011;35067;48.134;8.378;2023-05-02T02:05:47;31.38;;;16.55;;
49235;SDS011;35067;48.134;8.378;2023-05-02T02:06:52;33.83;;;17.35;;
49235;SDS011;35067;48.134;8.378;2023-05-02T02:08:02;29.73;;;16.15;;
49235;SDS011;35067;48.134;8.378;2023-05-02T02:09:03;27.15;;;16.40;;
49235;SDS011;35067;48.134;8.378;2023-05-02T02:10:03;34.20;;;18.03;;
49235;SDS011;35067;48.134;8.378;2023-05-02T02:11:08;32.70;;;17.20;;
49235;SDS011;35067;48.134;8.378;2023-05-02T02:12:34;32.47;;;17.42;;
49235;SDS011;35067;48.134;8.378;2023-05-02T02:13:42;32.97;;;17.42;;
49235;SDS011;35067;48.134;8.378;2023-05-02T02:14:50;31.42;;;18.52;;
49235;SDS011;35067;48.134;8.378;2023-05-02T02:16:29;32.60;;;16.90;;
49235;SDS011;35067;48.134;8.378;2023-05-02T02:18:39;35.92;;;18.60;;
49235;SDS011;35067;48.134;8.378;2023-05-02T02:19:48;32.42;;;17.80;;
49235;SDS011;35067;48.134;8.378;2023-05-02T02:20:54;35.30;;;18.50;;
49235;SDS011;35067;48.134;8.378;2023-05-02T02:21:58;33.65;;;17.77;;
49235;SDS011;35067;48.134;8.378;2023-05-02T02:23:02;36.20;;;17.52;;
49235;SDS011;35067;48.134;8.378;2023-05-02T02:24:08;38.15;;;19.67;;
49235;SDS011;35067;48.134;8.378;2023-05-02T02:25:11;41.45;;;20.38;;
49235;SDS011;35067;48.134;8.378;2023-05-02T02:26:15;35.47;;;18.33;;
49235;SDS011;35067;48.134;8.378;2023-05-02T02:27:18;36.60;;;18.10;;
49235;SDS011;35067;48.134;8.378;2023-05-02T02:28:20;31.80;;;17.80;;
49235;SDS011;35067;48.134;8.378;2023-05-02T02:29:21;33.97;;;18.50;;
49235;SDS011;35067;48.134;8.378;2023-05-02T02:30:21;36.10;;;19.77;;
49235;SDS011;35067;48.134;8.378;2023-05-02T02:31:24;51.40;;;23.33;;
49235;SDS011;35067;48.134;8.378;2023-05-02T02:32:34;45.03;;;22.20;;
49235;SDS011;35067;48.134;8.378;2023-05-02T02:33:35;40.30;;;21.23;;
49235;SDS011;35067;48.134;8.378;2023-05-02T02:34:38;34.58;;;18.15;;
49235;SDS011;35067;48.134;8.378;2023-05-02T02:35:40;41.42;;;20.90;;
49235;SDS011;35067;48.134;8.378;2023-05-02T02:36:56;43.42;;;21.00;;
49235;SDS011;35067;48.134;8.378;2023-05-02T02:40:02;49.17;;;21.95;;
49235;SDS011;35067;48.134;8.378;2023-05-02T02:41:21;53.83;;;23.48;;
49235;SDS011;35067;48.134;8.378;2023-05-02T02:44:15;49.55;;;21.90;;
49235;SDS011;35067;48.134;8.378;2023-05-02T02:45:33;41.10;;;18.60;;
49235;SDS011;35067;48.134;8.378;2023-05-02T02:46:47;46.30;;;21.60;;
49235;SDS011;35067;48.134;8.378;2023-05-02T02:49:34;38.20;;;19.10;;
49235;SDS011;35067;48.134;8.378;2023-05-02T02:50:45;34.60;;;18.80;;
49235;SDS011;35067;48.134;8.378;2023-05-02T02:53:50;39.75;;;20.30;;
49235;SDS011;35067;48.134;8.378;2023-05-02T02:55:06;39.42;;;19.42;;
49235;SDS011;35067;48.134;8.378;2023-05-02T02:56:14;44.83;;;21.25;;
49235;SDS011;35067;48.134;8.378;2023-05-02T02:57:31;46.88;;;22.63;;
49235;SDS011;35067;48.134;8.378;2023-05-02T02:58:59;45.58;;;22.67;;
49235;SDS011;35067;48.134;8.378;2023-05-02T03:00:20;50.20;;;21.67;;
49235;SDS011;35067;48.134;8.378;2023-05-02T03:01:26;49.63;;;23.27;;
49235;SDS011;35067;48.134;8.378;2023-05-02T03:02:30;48.05;;;22.33;;
49235;SDS011;35067;48.134;8.378;2023-05-02T03:03:33;47.05;;;23.70;;
49235;SDS011;35067;48.134;8.378;2023-05-02T03:04:37;50.92;;;22.40;;
49235;SDS011;35067;48.134;8.378;2023-05-02T03:05:42;58.03;;;25.42;;
49235;SDS011;35067;48.134;8.378;2023-05-02T03:06:45;46.50;;;23.00;;
49235;SDS011;35067;48.134;8.378;2023-05-02T03:07:49;49.88;;;19.83;;
49235;SDS011;35067;48.134;8.378;2023-05-02T03:08:50;51.03;;;20.75;;
49235;SDS011;35067;48.134;8.378;2023-05-02T03:09:51;47.58;;;21.85;;
49235;SDS011;35067;48.134;8.378;2023-05-02T03:10:52;35.47;;;18.87;;
49235;SDS011;35067;48.134;8.378;2023-05-02T03:11:54;37.65;;;18.70;;
49235;SDS011;35067;48.134;8.378;2023-05-02T03:12:56;39.47;;;19.05;;
49235;SDS011;35067;48.134;8.378;2023-05-02T03:13:57;38.90;;;18.60;;
49235;SDS011;35067;48.134;8.378;2023-05-02T03:15:17;40.15;;;19.58;;
49235;SDS011;35067;48.134;8.378;2023-05-02T03:16:58;35.97;;;17.10;;
49235;SDS011;35067;48.134;8.378;2023-05-02T03:18:01;31.42;;;16.08;;
49235;SDS011;35067;48.134;8.378;2023-05-02T03:19:02;35.07;;;17.57;;
49235;SDS011;35067;48.134;8.378;2023-05-02T03:20:04;48.97;;;20.75;;
49235;SDS011;35067;48.134;8.378;2023-05-02T03:21:06;48.63;;;21.52;;
49235;SDS011;35067;48.134;8.378;2023-05-02T03:22:07;49.07;;;20.50;;
49235;SDS011;35067;48.134;8.378;2023-05-02T03:23:08;39.20;;;18.57;;
49235;SDS011;35067;48.134;8.378;2023-05-02T03:24:09;41.60;;;20.05;;
49235;SDS011;35067;48.134;8.378;2023-05-02T03:25:10;30.52;;;16.67;;
49235;SDS011;35067;48.134;8.378;2023-05-02T03:26:11;52.30;;;22.10;;
49235;SDS011;35067;48.134;8.378;2023-05-02T03:27:12;48.37;;;19.93;;
49235;SDS011;35067;48.134;8.378;2023-05-02T03:28:13;43.33;;;20.13;;
49235;SDS011;35067;48.134;8.378;2023-05-02T03:29:15;58.47;;;23.08;;
49235;SDS011;35067;48.134;8.378;2023-05-02T03:30:15;84.07;;;21.83;;
49235;SDS011;35067;48.134;8.378;2023-05-02T03:31:16;59.60;;;23.60;;
49235;SDS011;35067;48.134;8.378;2023-05-02T03:32:17;52.97;;;22.07;;
49235;SDS011;35067;48.134;8.378;2023-05-02T03:33:19;45.30;;;21.05;;
49235;SDS011;35067;48.134;8.378;2023-05-02T03:34:20;41.70;;;19.67;;
49235;SDS011;35067;48.134;8.378;2023-05-02T03:35:21;43.20;;;21.27;;
49235;SDS011;35067;48.134;8.378;2023-05-02T03:36:23;47.35;;;20.85;;
49235;SDS011;35067;48.134;8.378;2023-05-02T03:37:23;49.60;;;22.07;;
49235;SDS011;35067;48.134;8.378;2023-05-02T03:38:28;51.13;;;22.92;;
49235;SDS011;35067;48.134;8.378;2023-05-02T03:39:29;48.03;;;22.55;;
49235;SDS011;35067;48.134;8.378;2023-05-02T03:40:31;54.45;;;23.42;;
49235;SDS011;35067;48.134;8.378;2023-05-02T03:41:32;49.93;;;22.60;;
49235;SDS011;35067;48.134;8.378;2023-05-02T03:42:34;56.30;;;25.30;;
49235;SDS011;35067;48.134;8.378;2023-05-02T03:43:41;48.17;;;21.92;;
49235;SDS011;35067;48.134;8.378;2023-05-02T03:44:43;42.37;;;21.43;;
49235;SDS011;35067;48.134;8.378;2023-05-02T03:45:43;47.08;;;22.08;;
49235;SDS011;35067;48.134;8.378;2023-05-02T03:46:44;47.30;;;22.43;;
49235;SDS011;35067;48.134;8.378;2023-05-02T03:47:47;42.60;;;20.88;;
49235;SDS011;35067;48.134;8.378;2023-05-02T03:48:48;48.77;;;23.07;;
49235;SDS011;35067;48.134;8.378;2023-05-02T03:49:50;53.72;;;23.67;;
49235;SDS011;35067;48.134;8.378;2023-05-02T03:50:53;39.83;;;21.05;;
49235;SDS011;35067;48.134;8.378;2023-05-02T03:51:54;48.63;;;22.63;;
49235;SDS011;35067;48.134;8.378;2023-05-02T03:52:56;44.13;;;21.50;;
49235;SDS011;35067;48.134;8.378;2023-05-02T03:53:57;45.10;;;22.65;;
49235;SDS011;35067;48.134;8.378;2023-05-02T03:55:01;44.80;;;22.20;;
49235;SDS011;35067;48.134;8.378;2023-05-02T03:56:03;45.55;;;22.67;;
49235;SDS011;35067;48.134;8.378;2023-05-02T03:57:07;44.50;;;22.10;;
49235;SDS011;35067;48.134;8.378;2023-05-02T03:58:11;43.92;;;22.13;;
49235;SDS011;35067;48.134;8.378;2023-05-02T03:59:13;39.45;;;21.33;;
49235;SDS011;35067;48.134;8.378;2023-05-02T04:00:14;44.70;;;21.40;;
49235;SDS011;35067;48.134;8.378;2023-05-02T04:01:15;44.47;;;21.60;;
49235;SDS011;35067;48.134;8.378;2023-05-02T04:02:16;42.93;;;21.43;;
49235;SDS011;35067;48.134;8.378;2023-05-02T04:03:17;39.43;;;20.77;;
49235;SDS011;35067;48.134;8.378;2023-05-02T04:04:23;41.15;;;20.60;;
49235;SDS011;35067;48.134;8.378;2023-05-02T04:05:25;38.88;;;19.70;;
49235;SDS011;35067;48.134;8.378;2023-05-02T04:06:26;42.50;;;20.45;;
49235;SDS011;35067;48.134;8.378;2023-05-02T04:07:26;39.13;;;20.83;;
49235;SDS011;35067;48.134;8.378;2023-05-02T04:08:27;46.07;;;21.60;;
49235;SDS011;35067;48.134;8.378;2023-05-02T04:09:28;42.77;;;20.70;;
49235;SDS011;35067;48.134;8.378;2023-05-02T04:10:29;43.47;;;22.60;;
49235;SDS011;35067;48.134;8.378;2023-05-02T04:11:29;48.43;;;25.00;;
49235;SDS011;35067;48.134;8.378;2023-05-02T04:12:31;41.13;;;20.25;;
49235;SDS011;35067;48.134;8.378;2023-05-02T04:13:33;36.15;;;21.25;;
49235;SDS011;35067;48.134;8.378;2023-05-02T04:14:35;39.72;;;21.17;;
49235;SDS011;35067;48.134;8.378;2023-05-02T04:15:39;40.35;;;21.35;;
49235;SDS011;35067;48.134;8.378;2023-05-02T04:16:39;42.55;;;20.83;;
49235;SDS011;35067;48.134;8.378;2023-05-02T04:17:40;37.90;;;18.90;;
49235;SDS011;35067;48.134;8.378;2023-05-02T04:18:41;43.07;;;21.93;;
49235;SDS011;35067;48.134;8.378;2023-05-02T04:19:42;43.97;;;21.97;;
49235;SDS011;35067;48.134;8.378;2023-05-02T04:20:42;39.63;;;19.30;;
49235;SDS011;35067;48.134;8.378;2023-05-02T04:21:49;48.30;;;23.42;;
49235;SDS011;35067;48.134;8.378;2023-05-02T04:22:50;37.72;;;20.60;;
49235;SDS011;35067;48.134;8.378;2023-05-02T04:23:52;37.47;;;20.58;;
49235;SDS011;35067;48.134;8.378;2023-05-02T04:24:53;42.67;;;19.93;;
49235;SDS011;35067;48.134;8.378;2023-05-02T04:25:56;34.50;;;18.52;;
49235;SDS011;35067;48.134;8.378;2023-05-02T04:26:56;36.20;;;19.20;;
49235;SDS011;35067;48.134;8.378;2023-05-02T04:27:58;31.88;;;18.58;;
49235;SDS011;35067;48.134;8.378;2023-05-02T04:29:01;37.80;;;20.85;;
49235;SDS011;35067;48.134;8.378;2023-05-02T04:30:03;37.95;;;20.38;;
49235;SDS011;35067;48.134;8.378;2023-05-02T04:31:06;32.75;;;19.25;;
49235;SDS011;35067;48.134;8.378;2023-05-02T04:32:08;34.43;;;19.73;;
49235;SDS011;35067;48.134;8.378;2023-05-02T04:33:09;33.97;;;19.25;;
49235;SDS011;35067;48.134;8.378;2023-05-02T04:34:10;33.85;;;18.95;;
49235;SDS011;35067;48.134;8.378;2023-05-02T04:35:11;34.77;;;19.67;;
49235;SDS011;35067;48.134;8.378;2023-05-02T04:36:14;33.67;;;18.30;;
49235;SDS011;35067;48.134;8.378;2023-05-02T04:37:15;36.63;;;18.93;;
49235;SDS011;35067;48.134;8.378;2023-05-02T04:38:17;33.08;;;19.35;;
49235;SDS011;35067;48.134;8.378;2023-05-02T04:39:18;35.60;;;19.90;;
49235;SDS011;35067;48.134;8.378;2023-05-02T04:40:19;38.88;;;19.20;;
49235;SDS011;35067;48.134;8.378;2023-05-02T04:41:20;36.47;;;20.07;;
49235;SDS011;35067;48.134;8.378;2023-05-02T04:42:22;30.73;;;19.15;;
49235;SDS011;35067;48.134;8.378;2023-05-02T04:43:23;32.50;;;18.83;;
49235;SDS011;35067;48.134;8.378;2023-05-02T04:44:24;30.57;;;18.27;;
49235;SDS011;35067;48.134;8.378;2023-05-02T04:45:24;29.83;;;17.97;;
49235;SDS011;35067;48.134;8.378;2023-05-02T04:46:26;34.10;;;20.33;;
49235;SDS011;35067;48.134;8.378;2023-05-02T04:47:27;32.97;;;19.20;;
49235;SDS011;35067;48.134;8.378;2023-05-02T04:48:27;31.77;;;19.47;;
49235;SDS011;35067;48.134;8.378;2023-05-02T04:49:29;35.88;;;20.08;;
49235;SDS011;35067;48.134;8.378;2023-05-02T04:50:32;31.58;;;18.45;;
49235;SDS011;35067;48.134;8.378;2023-05-02T04:51:35;33.28;;;18.83;;
49235;SDS011;35067;48.134;8.378;2023-05-02T04:52:36;32.87;;;19.33;;
49235;SDS011;35067;48.134;8.378;2023-05-02T04:53:40;29.23;;;19.02;;
49235;SDS011;35067;48.134;8.378;2023-05-02T04:54:43;29.35;;;17.80;;
49235;SDS011;35067;48.134;8.378;2023-05-02T04:55:44;33.47;;;17.92;;
49235;SDS011;35067;48.134;8.378;2023-05-02T04:56:45;31.90;;;18.45;;
49235;SDS011;35067;48.134;8.378;2023-05-02T04:57:46;28.33;;;16.73;;
49235;SDS011;35067;48.134;8.378;2023-05-02T04:58:48;34.33;;;19.80;;
49235;SDS011;35067;48.134;8.378;2023-05-02T04:59:49;29.80;;;18.73;;
49235;SDS011;35067;48.134;8.378;2023-05-02T05:00:51;31.33;;;18.45;;
49235;SDS011;35067;48.134;8.378;2023-05-02T05:01:53;31.70;;;18.85;;
49235;SDS011;35067;48.134;8.378;2023-05-02T05:02:56;31.95;;;18.23;;
49235;SDS011;35067;48.134;8.378;2023-05-02T05:03:56;31.17;;;18.20;;
49235;SDS011;35067;48.134;8.378;2023-05-02T05:05:00;29.10;;;17.95;;
49235;SDS011;35067;48.134;8.378;2023-05-02T05:06:01;29.23;;;18.35;;
49235;SDS011;35067;48.134;8.378;2023-05-02T05:07:02;26.83;;;16.53;;
49235;SDS011;35067;48.134;8.378;2023-05-02T05:08:04;34.47;;;19.30;;
49235;SDS011;35067;48.134;8.378;2023-05-02T05:09:06;29.63;;;17.97;;
49235;SDS011;35067;48.134;8.378;2023-05-02T05:10:09;26.70;;;16.35;;
49235;SDS011;35067;48.134;8.378;2023-05-02T05:11:12;29.70;;;17.90;;
49235;SDS011;35067;48.134;8.378;2023-05-02T05:12:14;28.02;;;17.58;;
49235;SDS011;35067;48.134;8.378;2023-05-02T05:13:15;29.87;;;17.37;;
49235;SDS011;35067;48.134;8.378;2023-05-02T05:14:16;28.70;;;17.57;;
49235;SDS011;35067;48.134;8.378;2023-05-02T05:15:16;29.73;;;17.37;;
49235;SDS011;35067;48.134;8.378;2023-05-02T05:16:19;30.90;;;18.80;;
49235;SDS011;35067;48.134;8.378;2023-05-02T05:17:20;24.83;;;16.37;;
49235;SDS011;35067;48.134;8.378;2023-05-02T05:18:21;27.10;;;16.48;;
49235;SDS011;35067;48.134;8.378;2023-05-02T05:19:22;26.40;;;17.40;;
49235;SDS011;35067;48.134;8.378;2023-05-02T05:20:23;25.93;;;16.57;;
49235;SDS011;35067;48.134;8.378;2023-05-02T05:21:24;29.03;;;16.90;;
49235;SDS011;35067;48.134;8.378;2023-05-02T05:22:26;27.08;;;17.65;;
49235;SDS011;35067;48.134;8.378;2023-05-02T05:23:28;30.40;;;17.83;;
49235;SDS011;35067;48.134;8.378;2023-05-02T05:24:28;32.27;;;18.23;;
49235;SDS011;35067;48.134;8.378;2023-05-02T05:25:29;30.87;;;18.40;;
49235;SDS011;35067;48.134;8.378;2023-05-02T05:26:32;28.27;;;16.90;;
49235;SDS011;35067;48.134;8.378;2023-05-02T05:27:34;30.08;;;17.75;;
49235;SDS011;35067;48.134;8.378;2023-05-02T05:28:37;26.27;;;17.02;;
49235;SDS011;35067;48.134;8.378;2023-05-02T05:29:42;26.33;;;16.33;;
49235;SDS011;35067;48.134;8.378;2023-05-02T05:30:42;29.27;;;16.90;;
49235;SDS011;35067;48.134;8.378;2023-05-02T05:31:43;25.93;;;15.73;;
49235;SDS011;35067;48.134;8.378;2023-05-02T05:32:45;24.13;;;15.35;;
49235;SDS011;35067;48.134;8.378;2023-05-02T05:33:46;27.33;;;16.90;;
49235;SDS011;35067;48.134;8.378;2023-05-02T05:34:50;25.77;;;16.23;;
49235;SDS011;35067;48.134;8.378;2023-05-02T05:35:53;26.45;;;16.05;;
49235;SDS011;35067;48.134;8.378;2023-05-02T05:36:54;28.08;;;16.70;;
49235;SDS011;35067;48.134;8.378;2023-05-02T05:37:55;29.63;;;17.60;;
49235;SDS011;35067;48.134;8.378;2023-05-02T05:38:56;30.13;;;18.10;;
49235;SDS011;35067;48.134;8.378;2023-05-02T05:39:57;24.77;;;15.80;;
49235;SDS011;35067;48.134;8.378;2023-05-02T05:40:58;25.02;;;15.68;;
49235;SDS011;35067;48.134;8.378;2023-05-02T05:42:01;28.85;;;17.38;;
49235;SDS011;35067;48.134;8.378;2023-05-02T05:43:02;29.83;;;18.52;;
49235;SDS011;35067;48.134;8.378;2023-05-02T05:44:03;26.07;;;17.03;;
49235;SDS011;35067;48.134;8.378;2023-05-02T05:45:05;24.40;;;15.98;;
49235;SDS011;35067;48.134;8.378;2023-05-02T05:46:08;21.65;;;15.38;;
49235;SDS011;35067;48.134;8.378;2023-05-02T05:47:08;23.80;;;15.23;;
49235;SDS011;35067;48.134;8.378;2023-05-02T05:48:10;19.70;;;13.30;;
49235;SDS011;35067;48.134;8.378;2023-05-02T05:49:11;26.17;;;15.70;;
49235;SDS011;35067;48.134;8.378;2023-05-02T05:50:12;22.63;;;15.63;;
49235;SDS011;35067;48.134;8.378;2023-05-02T05:51:13;25.33;;;15.95;;
49235;SDS011;35067;48.134;8.378;2023-05-02T05:52:14;21.43;;;14.67;;
49235;SDS011;35067;48.134;8.378;2023-05-02T05:53:14;25.13;;;16.50;;
49235;SDS011;35067;48.134;8.378;2023-05-02T05:54:15;21.97;;;15.40;;
49235;SDS011;35067;48.134;8.378;2023-05-02T05:55:17;27.60;;;15.73;;
49235;SDS011;35067;48.134;8.378;2023-05-02T05:56:18;24.40;;;14.83;;
49235;SDS011;35067;48.134;8.378;2023-05-02T05:57:18;23.87;;;16.17;;
49235;SDS011;35067;48.134;8.378;2023-05-02T05:58:19;23.50;;;14.80;;
49235;SDS011;35067;48.134;8.378;2023-05-02T05:59:20;22.73;;;15.15;;
49235;SDS011;35067;48.134;8.378;2023-05-02T06:00:21;21.90;;;14.40;;
49235;SDS011;35067;48.134;8.378;2023-05-02T06:01:21;23.47;;;15.20;;
49235;SDS011;35067;48.134;8.378;2023-05-02T06:02:22;21.17;;;14.13;;
49235;SDS011;35067;48.134;8.378;2023-05-02T06:03:23;29.63;;;17.73;;
49235;SDS011;35067;48.134;8.378;2023-05-02T06:04:23;27.53;;;18.10;;
49235;SDS011;35067;48.134;8.378;2023-05-02T06:05:24;23.27;;;15.70;;
49235;SDS011;35067;48.134;8.378;2023-05-02T06:06:26;24.73;;;16.40;;
49235;SDS011;35067;48.134;8.378;2023-05-02T06:07:27;21.00;;;15.73;;
49235;SDS011;35067;48.134;8.378;2023-05-02T06:08:27;27.33;;;16.60;;
49235;SDS011;35067;48.134;8.378;2023-05-02T06:09:29;26.35;;;16.38;;
49235;SDS011;35067;48.134;8.378;2023-05-02T06:10:31;25.50;;;17.55;;
49235;SDS011;35067;48.134;8.378;2023-05-02T06:11:31;20.93;;;14.87;;
49235;SDS011;35067;48.134;8.378;2023-05-02T06:12:32;23.25;;;15.55;;
49235;SDS011;35067;48.134;8.378;2023-05-02T06:13:33;19.60;;;14.23;;
49235;SDS011;35067;48.134;8.378;2023-05-02T06:14:34;24.58;;;15.35;;
49235;SDS011;35067;48.134;8.378;2023-05-02T06:15:35;23.33;;;14.43;;
49235;SDS011;35067;48.134;8.378;2023-05-02T06:16:36;23.80;;;15.77;;
49235;SDS011;35067;48.134;8.378;2023-05-02T06:17:37;24.23;;;15.87;;
49235;SDS011;35067;48.134;8.378;2023-05-02T06:18:39;18.25;;;12.05;;
49235;SDS011;35067;48.134;8.378;2023-05-02T06:19:41;22.90;;;14.60;;
49235;SDS011;35067;48.134;8.378;2023-05-02T06:20:43;17.85;;;13.43;;
49235;SDS011;35067;48.134;8.378;2023-05-02T06:21:43;18.80;;;13.27;;
49235;SDS011;35067;48.134;8.378;2023-05-02T06:22:44;19.10;;;13.07;;
49235;SDS011;35067;48.134;8.378;2023-05-02T06:23:46;17.57;;;12.63;;
49235;SDS011;35067;48.134;8.378;2023-05-02T06:24:48;16.63;;;12.35;;
49235;SDS011;35067;48.134;8.378;2023-05-02T06:25:48;18.42;;;13.05;;
49235;SDS011;35067;48.134;8.378;2023-05-02T06:26:51;19.73;;;13.57;;
49235;SDS011;35067;48.134;8.378;2023-05-02T06:27:51;15.20;;;11.13;;